sensor_id;sensor_type;location;lat;lon;timestamp;temperature;humidity
71837;DHT22;59686;51.716;7.016;2024-02-21T00:02:11;10.70;99.90
71837;DHT22;59686;51.716;7.016;2024-02-21T00:04:36;10.70;99.90
71837;DHT22;59686;51.716;7.016;2024-02-21T00:07:04;10.80;99.90
71837;DHT22;59686;51.716;7.016;2024-02-21T00:09:29;10.70;99.90
71837;DHT22;59686;51.716;7.016;2024-02-21T00:11:55;10.70;99.90
71837;DHT22;59686;51.716;7.016;2024-02-21T00:14:21;10.70;99.90
71837;DHT22;59686;51.716;7.016;2024-02-21T00:16:47;10.60;99.90
71837;DHT22;59686;51.716;7.016;2024-02-21T00:19:13;10.70;99.90
71837;DHT22;59686;51.716;7.016;2024-02-21T00:21:40;10.70;99.90
71837;DHT22;59686;51.716;7.016;2024-02-21T00:24:06;10.70;99.90
71837;DHT22;59686;51.716;7.016;2024-02-21T00:26:31;10.70;99.90
71837;DHT22;59686;51.716;7.016;2024-02-21T00:28:57;10.70;99.90
71837;DHT22;59686;51.716;7.016;2024-02-21T00:31:23;10.70;99.90
71837;DHT22;59686;51.716;7.016;2024-02-21T00:33:48;10.70;99.90
71837;DHT22;59686;51.716;7.016;2024-02-21T00:36:14;10.70;99.90
71837;DHT22;59686;51.716;7.016;2024-02-21T00:38:40;10.70;99.90
71837;DHT22;59686;51.716;7.016;2024-02-21T00:41:06;10.70;99.90
71837;DHT22;59686;51.716;7.016;2024-02-21T00:43:32;10.70;99.90
71837;DHT22;59686;51.716;7.016;2024-02-21T00:45:57;10.60;99.90
71837;DHT22;59686;51.716;7.016;2024-02-21T00:48:23;10.70;99.90
71837;DHT22;59686;51.716;7.016;2024-02-21T00:50:49;10.70;99.90
71837;DHT22;59686;51.716;7.016;2024-02-21T00:53:14;10.70;99.90
71837;DHT22;59686;51.716;7.016;2024-02-21T00:55:41;10.70;99.90
71837;DHT22;59686;51.716;7.016;2024-02-21T00:58:08;10.70;99.90
71837;DHT22;59686;51.716;7.016;2024-02-21T01:00:34;10.70;99.90
71837;DHT22;59686;51.716;7.016;2024-02-21T01:03:00;10.70;99.90
71837;DHT22;59686;51.716;7.016;2024-02-21T01:05:25;10.70;99.90
71837;DHT22;59686;51.716;7.016;2024-02-21T01:07:52;10.70;99.90
71837;DHT22;59686;51.716;7.016;2024-02-21T01:10:18;10.70;99.90
71837;DHT22;59686;51.716;7.016;2024-02-21T01:12:44;10.70;99.90
71837;DHT22;59686;51.716;7.016;2024-02-21T01:15:09;10.70;99.90
71837;DHT22;59686;51.716;7.016;2024-02-21T01:17:36;10.70;99.90
71837;DHT22;59686;51.716;7.016;2024-02-21T01:20:02;10.70;99.90
71837;DHT22;59686;51.716;7.016;2024-02-21T01:22:28;10.70;99.90
71837;DHT22;59686;51.716;7.016;2024-02-21T01:24:54;10.70;99.90
71837;DHT22;59686;51.716;7.016;2024-02-21T01:27:19;10.70;99.90
71837;DHT22;59686;51.716;7.016;2024-02-21T01:29:46;10.70;99.90
71837;DHT22;59686;51.716;7.016;2024-02-21T01:32:15;10.70;99.90
71837;DHT22;59686;51.716;7.016;2024-02-21T01:34:41;10.70;99.90
71837;DHT22;59686;51.716;7.016;2024-02-21T01:37:06;10.70;99.90
71837;DHT22;59686;51.716;7.016;2024-02-21T01:39:33;10.60;99.90
71837;DHT22;59686;51.716;7.016;2024-02-21T01:41:59;10.70;99.90
71837;DHT22;59686;51.716;7.016;2024-02-21T01:44:25;10.70;99.90
71837;DHT22;59686;51.716;7.016;2024-02-21T01:46:52;10.70;99.90
71837;DHT22;59686;51.716;7.016;2024-02-21T01:49:19;10.70;99.90
71837;DHT22;59686;51.716;7.016;2024-02-21T01:51:44;10.70;99.90
71837;DHT22;59686;51.716;7.016;2024-02-21T01:54:10;10.70;99.90
71837;DHT22;59686;51.716;7.016;2024-02-21T01:56:38;10.70;99.90
71837;DHT22;59686;51.716;7.016;2024-02-21T01:59:04;10.70;99.90
71837;DHT22;59686;51.716;7.016;2024-02-21T02:01:30;10.70;99.90
71837;DHT22;59686;51.716;7.016;2024-02-21T02:03:56;10.70;99.90
71837;DHT22;59686;51.716;7.016;2024-02-21T02:06:22;10.70;99.90
71837;DHT22;59686;51.716;7.016;2024-02-21T02:08:48;10.70;99.90
71837;DHT22;59686;51.716;7.016;2024-02-21T02:11:14;10.70;99.90
71837;DHT22;59686;51.716;7.016;2024-02-21T02:13:40;10.70;99.90
71837;DHT22;59686;51.716;7.016;2024-02-21T02:16:06;10.50;99.90
71837;DHT22;59686;51.716;7.016;2024-02-21T02:18:31;10.60;99.90
71837;DHT22;59686;51.716;7.016;2024-02-21T02:20:57;10.60;99.90
71837;DHT22;59686;51.716;7.016;2024-02-21T02:23:26;10.60;99.90
71837;DHT22;59686;51.716;7.016;2024-02-21T02:25:53;10.60;99.90
71837;DHT22;59686;51.716;7.016;2024-02-21T02:28:19;10.70;99.90
71837;DHT22;59686;51.716;7.016;2024-02-21T02:30:45;10.70;99.90
71837;DHT22;59686;51.716;7.016;2024-02-21T02:33:11;10.70;99.90
71837;DHT22;59686;51.716;7.016;2024-02-21T02:35:36;10.60;99.90
71837;DHT22;59686;51.716;7.016;2024-02-21T02:38:03;10.60;99.90
71837;DHT22;59686;51.716;7.016;2024-02-21T02:40:29;10.60;99.90
71837;DHT22;59686;51.716;7.016;2024-02-21T02:42:55;10.60;99.90
71837;DHT22;59686;51.716;7.016;2024-02-21T02:45:21;10.80;99.90
71837;DHT22;59686;51.716;7.016;2024-02-21T02:47:48;10.60;99.90
71837;DHT22;59686;51.716;7.016;2024-02-21T02:50:14;10.70;99.90
71837;DHT22;59686;51.716;7.016;2024-02-21T02:52:40;10.60;99.90
71837;DHT22;59686;51.716;7.016;2024-02-21T02:55:06;10.60;99.90
71837;DHT22;59686;51.716;7.016;2024-02-21T02:57:32;10.60;99.90
71837;DHT22;59686;51.716;7.016;2024-02-21T02:59:58;10.60;99.90
71837;DHT22;59686;51.716;7.016;2024-02-21T03:02:24;10.60;99.90
71837;DHT22;59686;51.716;7.016;2024-02-21T03:04:50;10.60;99.90
71837;DHT22;59686;51.716;7.016;2024-02-21T03:07:16;10.60;99.90
71837;DHT22;59686;51.716;7.016;2024-02-21T03:09:42;10.70;99.90
71837;DHT22;59686;51.716;7.016;2024-02-21T03:12:11;10.60;99.90
71837;DHT22;59686;51.716;7.016;2024-02-21T03:14:36;10.70;99.90
71837;DHT22;59686;51.716;7.016;2024-02-21T03:17:02;10.70;99.90
71837;DHT22;59686;51.716;7.016;2024-02-21T03:19:28;10.60;99.90
71837;DHT22;59686;51.716;7.016;2024-02-21T03:21:55;10.60;99.90
71837;DHT22;59686;51.716;7.016;2024-02-21T03:24:20;10.60;99.90
71837;DHT22;59686;51.716;7.016;2024-02-21T03:26:47;10.50;99.90
71837;DHT22;59686;51.716;7.016;2024-02-21T03:29:15;10.60;99.90
71837;DHT22;59686;51.716;7.016;2024-02-21T03:31:41;10.60;99.90
71837;DHT22;59686;51.716;7.016;2024-02-21T03:34:07;10.60;99.90
71837;DHT22;59686;51.716;7.016;2024-02-21T03:36:32;10.50;99.90
71837;DHT22;59686;51.716;7.016;2024-02-21T03:38:59;10.50;99.90
71837;DHT22;59686;51.716;7.016;2024-02-21T03:41:25;10.60;99.90
71837;DHT22;59686;51.716;7.016;2024-02-21T03:43:50;10.60;99.90
71837;DHT22;59686;51.716;7.016;2024-02-21T03:46:16;10.60;99.90
71837;DHT22;59686;51.716;7.016;2024-02-21T03:48:41;10.60;99.90
71837;DHT22;59686;51.716;7.016;2024-02-21T03:51:08;10.60;99.90
71837;DHT22;59686;51.716;7.016;2024-02-21T03:53:34;10.60;99.90
71837;DHT22;59686;51.716;7.016;2024-02-21T03:56:03;10.60;99.90
71837;DHT22;59686;51.716;7.016;2024-02-21T03:58:32;10.60;99.90
71837;DHT22;59686;51.716;7.016;2024-02-21T04:01:02;10.60;99.90
71837;DHT22;59686;51.716;7.016;2024-02-21T04:03:28;10.60;99.90
71837;DHT22;59686;51.716;7.016;2024-02-21T04:05:54;10.60;99.90
71837;DHT22;59686;51.716;7.016;2024-02-21T04:08:20;10.60;99.90
71837;DHT22;59686;51.716;7.016;2024-02-21T04:10:45;10.60;99.90
71837;DHT22;59686;51.716;7.016;2024-02-21T04:13:12;10.60;99.90
71837;DHT22;59686;51.716;7.016;2024-02-21T04:15:38;10.60;99.90
71837;DHT22;59686;51.716;7.016;2024-02-21T04:18:04;10.60;99.90
71837;DHT22;59686;51.716;7.016;2024-02-21T04:20:29;10.60;99.90
71837;DHT22;59686;51.716;7.016;2024-02-21T04:22:56;10.60;99.90
71837;DHT22;59686;51.716;7.016;2024-02-21T04:25:22;10.60;99.90
71837;DHT22;59686;51.716;7.016;2024-02-21T04:27:47;10.60;99.90
71837;DHT22;59686;51.716;7.016;2024-02-21T04:30:13;10.60;99.90
71837;DHT22;59686;51.716;7.016;2024-02-21T04:32:39;10.60;99.90
71837;DHT22;59686;51.716;7.016;2024-02-21T04:35:06;10.60;99.90
71837;DHT22;59686;51.716;7.016;2024-02-21T04:37:32;10.60;99.90
71837;DHT22;59686;51.716;7.016;2024-02-21T04:39:58;10.60;99.90
71837;DHT22;59686;51.716;7.016;2024-02-21T04:42:23;10.60;99.90
71837;DHT22;59686;51.716;7.016;2024-02-21T04:44:49;10.60;99.90
71837;DHT22;59686;51.716;7.016;2024-02-21T04:47:15;10.60;99.90
71837;DHT22;59686;51.716;7.016;2024-02-21T04:49:41;10.60;99.90
71837;DHT22;59686;51.716;7.016;2024-02-21T04:52:06;10.60;99.90
71837;DHT22;59686;51.716;7.016;2024-02-21T04:54:32;10.60;99.90
71837;DHT22;59686;51.716;7.016;2024-02-21T04:56:58;10.80;99.90
71837;DHT22;59686;51.716;7.016;2024-02-21T04:59:23;10.60;99.90
71837;DHT22;59686;51.716;7.016;2024-02-21T05:01:49;10.60;99.90
71837;DHT22;59686;51.716;7.016;2024-02-21T05:04:15;10.60;99.90
71837;DHT22;59686;51.716;7.016;2024-02-21T05:06:43;10.70;99.90
71837;DHT22;59686;51.716;7.016;2024-02-21T05:09:10;10.70;99.90
71837;DHT22;59686;51.716;7.016;2024-02-21T05:11:36;10.60;99.90
71837;DHT22;59686;51.716;7.016;2024-02-21T05:14:02;10.60;99.90
71837;DHT22;59686;51.716;7.016;2024-02-21T05:16:29;10.70;99.90
71837;DHT22;59686;51.716;7.016;2024-02-21T05:18:54;10.60;99.90
71837;DHT22;59686;51.716;7.016;2024-02-21T05:21:22;10.70;99.90
71837;DHT22;59686;51.716;7.016;2024-02-21T05:23:49;10.50;99.90
71837;DHT22;59686;51.716;7.016;2024-02-21T05:26:25;10.60;99.90
71837;DHT22;59686;51.716;7.016;2024-02-21T05:28:51;10.60;99.90
71837;DHT22;59686;51.716;7.016;2024-02-21T05:31:20;10.60;99.90
71837;DHT22;59686;51.716;7.016;2024-02-21T05:33:49;10.60;99.90
71837;DHT22;59686;51.716;7.016;2024-02-21T05:36:14;10.70;99.90
71837;DHT22;59686;51.716;7.016;2024-02-21T05:38:40;10.60;99.90
71837;DHT22;59686;51.716;7.016;2024-02-21T05:41:06;10.60;99.90
71837;DHT22;59686;51.716;7.016;2024-02-21T05:43:31;10.60;99.90
71837;DHT22;59686;51.716;7.016;2024-02-21T05:45:57;10.60;99.90
71837;DHT22;59686;51.716;7.016;2024-02-21T05:48:23;10.60;99.90
71837;DHT22;59686;51.716;7.016;2024-02-21T05:50:49;10.60;99.90
71837;DHT22;59686;51.716;7.016;2024-02-21T05:53:15;10.60;99.90
71837;DHT22;59686;51.716;7.016;2024-02-21T05:55:41;10.50;99.90
71837;DHT22;59686;51.716;7.016;2024-02-21T05:58:07;10.60;99.90
71837;DHT22;59686;51.716;7.016;2024-02-21T06:00:33;10.60;99.90
71837;DHT22;59686;51.716;7.016;2024-02-21T06:02:59;10.60;99.90
71837;DHT22;59686;51.716;7.016;2024-02-21T06:05:24;10.60;99.90
71837;DHT22;59686;51.716;7.016;2024-02-21T06:07:50;10.60;99.90
71837;DHT22;59686;51.716;7.016;2024-02-21T06:10:16;10.60;99.90
71837;DHT22;59686;51.716;7.016;2024-02-21T06:12:42;10.60;99.90
71837;DHT22;59686;51.716;7.016;2024-02-21T06:15:08;10.60;99.90
71837;DHT22;59686;51.716;7.016;2024-02-21T06:17:34;10.50;99.90
71837;DHT22;59686;51.716;7.016;2024-02-21T06:20:00;10.60;99.90
71837;DHT22;59686;51.716;7.016;2024-02-21T06:22:25;10.50;99.90
71837;DHT22;59686;51.716;7.016;2024-02-21T06:24:51;10.60;99.90
71837;DHT22;59686;51.716;7.016;2024-02-21T06:27:17;10.50;99.90
71837;DHT22;59686;51.716;7.016;2024-02-21T06:29:43;10.60;99.90
71837;DHT22;59686;51.716;7.016;2024-02-21T06:32:08;10.60;99.90
71837;DHT22;59686;51.716;7.016;2024-02-21T06:34:34;10.70;99.90
71837;DHT22;59686;51.716;7.016;2024-02-21T06:37:02;10.60;99.90
71837;DHT22;59686;51.716;7.016;2024-02-21T06:39:29;10.60;99.90
71837;DHT22;59686;51.716;7.016;2024-02-21T06:41:55;10.70;99.90
71837;DHT22;59686;51.716;7.016;2024-02-21T06:44:24;10.60;99.90
71837;DHT22;59686;51.716;7.016;2024-02-21T06:46:49;10.60;99.90
71837;DHT22;59686;51.716;7.016;2024-02-21T06:49:15;10.60;99.90
71837;DHT22;59686;51.716;7.016;2024-02-21T06:51:44;10.60;99.90
71837;DHT22;59686;51.716;7.016;2024-02-21T06:54:10;10.50;99.90
71837;DHT22;59686;51.716;7.016;2024-02-21T06:56:37;10.60;99.90
71837;DHT22;59686;51.716;7.016;2024-02-21T06:59:03;10.50;99.90
71837;DHT22;59686;51.716;7.016;2024-02-21T07:01:30;10.60;99.90
71837;DHT22;59686;51.716;7.016;2024-02-21T07:03:56;10.50;99.90
71837;DHT22;59686;51.716;7.016;2024-02-21T07:06:22;10.50;99.90
71837;DHT22;59686;51.716;7.016;2024-02-21T07:08:48;10.60;99.90
71837;DHT22;59686;51.716;7.016;2024-02-21T07:11:13;10.60;99.90
71837;DHT22;59686;51.716;7.016;2024-02-21T07:13:39;10.50;99.90
71837;DHT22;59686;51.716;7.016;2024-02-21T07:16:06;10.50;99.90
71837;DHT22;59686;51.716;7.016;2024-02-21T07:18:32;10.60;99.90
71837;DHT22;59686;51.716;7.016;2024-02-21T07:20:57;10.50;99.90
71837;DHT22;59686;51.716;7.016;2024-02-21T07:23:24;10.60;99.90
71837;DHT22;59686;51.716;7.016;2024-02-21T07:25:50;10.50;99.90
71837;DHT22;59686;51.716;7.016;2024-02-21T07:28:15;10.50;99.90
71837;DHT22;59686;51.716;7.016;2024-02-21T07:30:42;10.50;99.90
71837;DHT22;59686;51.716;7.016;2024-02-21T07:33:08;10.60;99.90
71837;DHT22;59686;51.716;7.016;2024-02-21T07:35:33;10.50;99.90
71837;DHT22;59686;51.716;7.016;2024-02-21T07:37:59;10.50;99.90
71837;DHT22;59686;51.716;7.016;2024-02-21T07:40:25;10.60;99.90
71837;DHT22;59686;51.716;7.016;2024-02-21T07:42:51;10.50;99.90
71837;DHT22;59686;51.716;7.016;2024-02-21T07:45:17;10.60;99.90
71837;DHT22;59686;51.716;7.016;2024-02-21T07:47:43;10.50;99.90
71837;DHT22;59686;51.716;7.016;2024-02-21T07:50:09;10.60;99.90
71837;DHT22;59686;51.716;7.016;2024-02-21T07:52:35;10.60;99.90
71837;DHT22;59686;51.716;7.016;2024-02-21T07:55:01;10.50;99.90
71837;DHT22;59686;51.716;7.016;2024-02-21T07:57:26;10.60;99.90
71837;DHT22;59686;51.716;7.016;2024-02-21T07:59:52;10.50;99.90
71837;DHT22;59686;51.716;7.016;2024-02-21T08:02:17;10.50;99.90
71837;DHT22;59686;51.716;7.016;2024-02-21T08:04:43;10.50;99.90
71837;DHT22;59686;51.716;7.016;2024-02-21T08:07:09;10.50;99.90
71837;DHT22;59686;51.716;7.016;2024-02-21T08:09:35;10.60;99.90
71837;DHT22;59686;51.716;7.016;2024-02-21T08:12:03;10.60;99.90
71837;DHT22;59686;51.716;7.016;2024-02-21T08:14:29;10.60;99.90
71837;DHT22;59686;51.716;7.016;2024-02-21T08:16:55;10.60;99.90
71837;DHT22;59686;51.716;7.016;2024-02-21T08:19:21;10.60;99.90
71837;DHT22;59686;51.716;7.016;2024-02-21T08:21:50;10.50;99.90
71837;DHT22;59686;51.716;7.016;2024-02-21T08:24:16;10.50;99.90
71837;DHT22;59686;51.716;7.016;2024-02-21T08:26:42;10.50;99.90
71837;DHT22;59686;51.716;7.016;2024-02-21T08:29:08;10.50;99.90
71837;DHT22;59686;51.716;7.016;2024-02-21T08:31:33;10.60;99.90
71837;DHT22;59686;51.716;7.016;2024-02-21T08:34:03;10.50;99.90
71837;DHT22;59686;51.716;7.016;2024-02-21T08:36:33;10.60;99.90
71837;DHT22;59686;51.716;7.016;2024-02-21T08:38:59;10.50;99.90
71837;DHT22;59686;51.716;7.016;2024-02-21T08:41:25;10.60;99.90
71837;DHT22;59686;51.716;7.016;2024-02-21T08:43:54;10.50;99.90
71837;DHT22;59686;51.716;7.016;2024-02-21T08:46:20;10.50;99.90
71837;DHT22;59686;51.716;7.016;2024-02-21T08:48:46;10.60;99.90
71837;DHT22;59686;51.716;7.016;2024-02-21T08:51:13;10.50;99.90
71837;DHT22;59686;51.716;7.016;2024-02-21T08:53:39;10.60;99.90
71837;DHT22;59686;51.716;7.016;2024-02-21T08:56:05;10.60;99.90
71837;DHT22;59686;51.716;7.016;2024-02-21T08:58:31;10.60;99.90
71837;DHT22;59686;51.716;7.016;2024-02-21T09:00:57;10.60;99.90
71837;DHT22;59686;51.716;7.016;2024-02-21T09:03:22;10.50;99.90
71837;DHT22;59686;51.716;7.016;2024-02-21T09:05:48;10.50;99.90
71837;DHT22;59686;51.716;7.016;2024-02-21T09:08:14;10.60;99.90
71837;DHT22;59686;51.716;7.016;2024-02-21T09:10:40;10.70;99.90
71837;DHT22;59686;51.716;7.016;2024-02-21T09:13:06;10.60;99.90
71837;DHT22;59686;51.716;7.016;2024-02-21T09:15:33;10.60;99.90
71837;DHT22;59686;51.716;7.016;2024-02-21T09:17:59;10.60;99.90
71837;DHT22;59686;51.716;7.016;2024-02-21T09:20:24;10.60;99.90
71837;DHT22;59686;51.716;7.016;2024-02-21T09:22:50;10.60;99.90
71837;DHT22;59686;51.716;7.016;2024-02-21T09:25:17;10.70;99.90
71837;DHT22;59686;51.716;7.016;2024-02-21T09:27:44;10.60;99.90
71837;DHT22;59686;51.716;7.016;2024-02-21T09:30:10;10.60;99.90
71837;DHT22;59686;51.716;7.016;2024-02-21T09:32:37;10.60;99.90
71837;DHT22;59686;51.716;7.016;2024-02-21T09:35:03;10.60;99.90
71837;DHT22;59686;51.716;7.016;2024-02-21T09:37:29;10.60;99.90
71837;DHT22;59686;51.716;7.016;2024-02-21T09:39:54;10.50;99.90
71837;DHT22;59686;51.716;7.016;2024-02-21T09:42:21;10.60;99.90
71837;DHT22;59686;51.716;7.016;2024-02-21T09:44:47;10.60;99.90
71837;DHT22;59686;51.716;7.016;2024-02-21T09:47:17;10.60;99.90
71837;DHT22;59686;51.716;7.016;2024-02-21T09:49:44;10.60;99.90
71837;DHT22;59686;51.716;7.016;2024-02-21T09:52:12;10.70;99.90
71837;DHT22;59686;51.716;7.016;2024-02-21T09:54:40;10.60;99.90
71837;DHT22;59686;51.716;7.016;2024-02-21T09:57:08;10.50;99.90
71837;DHT22;59686;51.716;7.016;2024-02-21T09:59:33;10.60;99.90
71837;DHT22;59686;51.716;7.016;2024-02-21T10:01:59;10.60;99.90
71837;DHT22;59686;51.716;7.016;2024-02-21T10:04:26;10.60;99.90
71837;DHT22;59686;51.716;7.016;2024-02-21T10:06:53;10.60;99.90
71837;DHT22;59686;51.716;7.016;2024-02-21T10:09:28;10.60;99.90
71837;DHT22;59686;51.716;7.016;2024-02-21T10:11:55;10.60;99.90
71837;DHT22;59686;51.716;7.016;2024-02-21T10:14:21;10.50;99.90
71837;DHT22;59686;51.716;7.016;2024-02-21T10:16:57;10.60;99.90
71837;DHT22;59686;51.716;7.016;2024-02-21T10:19:26;10.50;99.90
71837;DHT22;59686;51.716;7.016;2024-02-21T10:24:27;10.60;99.90
71837;DHT22;59686;51.716;7.016;2024-02-21T10:27:06;10.70;99.90
71837;DHT22;59686;51.716;7.016;2024-02-21T10:29:36;10.60;99.90
71837;DHT22;59686;51.716;7.016;2024-02-21T10:32:12;10.70;99.90
71837;DHT22;59686;51.716;7.016;2024-02-21T10:34:39;10.60;99.90
71837;DHT22;59686;51.716;7.016;2024-02-21T10:37:07;10.60;99.90
71837;DHT22;59686;51.716;7.016;2024-02-21T10:39:34;10.50;99.90
71837;DHT22;59686;51.716;7.016;2024-02-21T10:42:02;10.60;99.90
71837;DHT22;59686;51.716;7.016;2024-02-21T10:44:32;10.60;99.90
71837;DHT22;59686;51.716;7.016;2024-02-21T10:46:59;10.60;99.90
71837;DHT22;59686;51.716;7.016;2024-02-21T10:49:30;10.60;99.90
71837;DHT22;59686;51.716;7.016;2024-02-21T10:52:23;10.60;99.90
71837;DHT22;59686;51.716;7.016;2024-02-21T10:55:08;10.60;99.90
71837;DHT22;59686;51.716;7.016;2024-02-21T10:57:37;10.60;99.90
71837;DHT22;59686;51.716;7.016;2024-02-21T11:00:04;10.60;99.90
71837;DHT22;59686;51.716;7.016;2024-02-21T11:02:34;10.60;99.90
71837;DHT22;59686;51.716;7.016;2024-02-21T11:05:01;10.60;99.90
71837;DHT22;59686;51.716;7.016;2024-02-21T11:07:30;10.60;99.90
71837;DHT22;59686;51.716;7.016;2024-02-21T11:09:58;10.60;99.90
71837;DHT22;59686;51.716;7.016;2024-02-21T11:12:25;10.60;99.90
71837;DHT22;59686;51.716;7.016;2024-02-21T11:14:51;10.60;99.90
71837;DHT22;59686;51.716;7.016;2024-02-21T11:17:19;10.80;99.90
71837;DHT22;59686;51.716;7.016;2024-02-21T11:19:46;10.60;99.90
71837;DHT22;59686;51.716;7.016;2024-02-21T11:22:17;10.60;99.90
71837;DHT22;59686;51.716;7.016;2024-02-21T11:24:43;10.60;99.90
71837;DHT22;59686;51.716;7.016;2024-02-21T11:27:11;10.60;99.90
71837;DHT22;59686;51.716;7.016;2024-02-21T11:29:49;10.60;99.90
71837;DHT22;59686;51.716;7.016;2024-02-21T11:32:19;10.60;99.90
71837;DHT22;59686;51.716;7.016;2024-02-21T11:37:28;10.60;99.90
71837;DHT22;59686;51.716;7.016;2024-02-21T11:39:58;10.60;99.90
71837;DHT22;59686;51.716;7.016;2024-02-21T11:42:27;10.80;99.90
71837;DHT22;59686;51.716;7.016;2024-02-21T11:44:53;10.60;99.80
71837;DHT22;59686;51.716;7.016;2024-02-21T11:47:22;10.70;99.90
71837;DHT22;59686;51.716;7.016;2024-02-21T11:49:49;10.70;99.90
71837;DHT22;59686;51.716;7.016;2024-02-21T11:52:23;10.70;99.90
71837;DHT22;59686;51.716;7.016;2024-02-21T11:54:51;10.70;99.90
71837;DHT22;59686;51.716;7.016;2024-02-21T11:57:17;10.70;99.90
71837;DHT22;59686;51.716;7.016;2024-02-21T11:59:44;10.70;99.90
71837;DHT22;59686;51.716;7.016;2024-02-21T12:02:10;10.60;99.90
71837;DHT22;59686;51.716;7.016;2024-02-21T12:04:36;10.70;99.80
71837;DHT22;59686;51.716;7.016;2024-02-21T12:07:02;10.70;99.90
71837;DHT22;59686;51.716;7.016;2024-02-21T12:09:30;10.70;99.80
71837;DHT22;59686;51.716;7.016;2024-02-21T12:12:05;10.70;99.70
71837;DHT22;59686;51.716;7.016;2024-02-21T12:14:32;10.70;99.80
71837;DHT22;59686;51.716;7.016;2024-02-21T12:16:59;10.70;99.80
71837;DHT22;59686;51.716;7.016;2024-02-21T12:19:28;10.80;99.90
71837;DHT22;59686;51.716;7.016;2024-02-21T12:21:54;10.80;99.90
71837;DHT22;59686;51.716;7.016;2024-02-21T12:24:25;10.90;99.80
71837;DHT22;59686;51.716;7.016;2024-02-21T12:26:51;10.80;99.60
71837;DHT22;59686;51.716;7.016;2024-02-21T12:29:19;10.80;99.60
71837;DHT22;59686;51.716;7.016;2024-02-21T12:31:44;10.70;99.60
71837;DHT22;59686;51.716;7.016;2024-02-21T12:34:10;10.80;99.50
71837;DHT22;59686;51.716;7.016;2024-02-21T12:36:41;10.80;99.80
71837;DHT22;59686;51.716;7.016;2024-02-21T12:39:08;10.90;99.90
71837;DHT22;59686;51.716;7.016;2024-02-21T12:41:35;10.80;99.60
71837;DHT22;59686;51.716;7.016;2024-02-21T12:44:06;10.70;99.60
71837;DHT22;59686;51.716;7.016;2024-02-21T12:46:35;10.90;99.60
71837;DHT22;59686;51.716;7.016;2024-02-21T12:49:04;10.80;99.50
71837;DHT22;59686;51.716;7.016;2024-02-21T12:51:34;10.80;99.40
71837;DHT22;59686;51.716;7.016;2024-02-21T12:54:00;10.80;99.50
71837;DHT22;59686;51.716;7.016;2024-02-21T12:56:26;11.00;99.50
71837;DHT22;59686;51.716;7.016;2024-02-21T12:58:58;10.80;99.50
71837;DHT22;59686;51.716;7.016;2024-02-21T13:01:24;10.80;99.40
71837;DHT22;59686;51.716;7.016;2024-02-21T13:03:49;10.70;99.30
71837;DHT22;59686;51.716;7.016;2024-02-21T13:06:15;10.80;99.30
71837;DHT22;59686;51.716;7.016;2024-02-21T13:08:41;10.80;99.20
71837;DHT22;59686;51.716;7.016;2024-02-21T13:11:06;10.90;99.40
71837;DHT22;59686;51.716;7.016;2024-02-21T13:13:32;10.90;99.30
71837;DHT22;59686;51.716;7.016;2024-02-21T13:15:58;10.90;99.30
71837;DHT22;59686;51.716;7.016;2024-02-21T13:18:24;10.90;99.40
71837;DHT22;59686;51.716;7.016;2024-02-21T13:20:50;10.90;99.40
71837;DHT22;59686;51.716;7.016;2024-02-21T13:23:16;10.90;99.30
71837;DHT22;59686;51.716;7.016;2024-02-21T13:25:41;10.80;99.50
71837;DHT22;59686;51.716;7.016;2024-02-21T13:28:07;10.90;99.20
71837;DHT22;59686;51.716;7.016;2024-02-21T13:30:35;10.90;99.10
71837;DHT22;59686;51.716;7.016;2024-02-21T13:33:00;10.90;99.20
71837;DHT22;59686;51.716;7.016;2024-02-21T13:35:26;10.80;99.00
71837;DHT22;59686;51.716;7.016;2024-02-21T13:37:53;11.00;99.00
71837;DHT22;59686;51.716;7.016;2024-02-21T13:40:19;10.90;99.10
71837;DHT22;59686;51.716;7.016;2024-02-21T13:42:45;10.90;99.00
71837;DHT22;59686;51.716;7.016;2024-02-21T13:45:10;10.90;98.90
71837;DHT22;59686;51.716;7.016;2024-02-21T13:47:36;10.90;99.00
71837;DHT22;59686;51.716;7.016;2024-02-21T13:50:02;10.90;98.90
71837;DHT22;59686;51.716;7.016;2024-02-21T13:52:30;10.90;98.90
71837;DHT22;59686;51.716;7.016;2024-02-21T13:54:56;11.00;98.90
71837;DHT22;59686;51.716;7.016;2024-02-21T13:57:22;11.00;98.80
71837;DHT22;59686;51.716;7.016;2024-02-21T13:59:48;11.00;99.10
71837;DHT22;59686;51.716;7.016;2024-02-21T14:02:13;11.00;99.00
71837;DHT22;59686;51.716;7.016;2024-02-21T14:04:39;11.00;99.40
71837;DHT22;59686;51.716;7.016;2024-02-21T14:07:05;10.90;99.00
71837;DHT22;59686;51.716;7.016;2024-02-21T14:09:30;11.00;98.90
71837;DHT22;59686;51.716;7.016;2024-02-21T14:11:59;11.00;98.80
71837;DHT22;59686;51.716;7.016;2024-02-21T14:14:25;11.00;98.70
71837;DHT22;59686;51.716;7.016;2024-02-21T14:16:51;11.00;98.80
71837;DHT22;59686;51.716;7.016;2024-02-21T14:19:17;11.00;98.80
71837;DHT22;59686;51.716;7.016;2024-02-21T14:21:44;11.00;98.60
71837;DHT22;59686;51.716;7.016;2024-02-21T14:24:10;11.00;98.90
71837;DHT22;59686;51.716;7.016;2024-02-21T14:26:37;11.00;98.90
71837;DHT22;59686;51.716;7.016;2024-02-21T14:29:03;11.00;98.80
71837;DHT22;59686;51.716;7.016;2024-02-21T14:31:32;11.00;98.70
71837;DHT22;59686;51.716;7.016;2024-02-21T14:33:58;11.00;98.80
71837;DHT22;59686;51.716;7.016;2024-02-21T14:36:23;11.00;98.70
71837;DHT22;59686;51.716;7.016;2024-02-21T14:38:49;11.10;98.70
71837;DHT22;59686;51.716;7.016;2024-02-21T14:41:18;11.00;98.80
71837;DHT22;59686;51.716;7.016;2024-02-21T14:43:44;11.00;98.60
71837;DHT22;59686;51.716;7.016;2024-02-21T14:46:10;10.90;98.60
71837;DHT22;59686;51.716;7.016;2024-02-21T14:48:38;11.00;98.60
71837;DHT22;59686;51.716;7.016;2024-02-21T14:51:04;11.20;98.90
71837;DHT22;59686;51.716;7.016;2024-02-21T14:53:29;11.00;98.70
71837;DHT22;59686;51.716;7.016;2024-02-21T14:55:56;11.00;98.50
71837;DHT22;59686;51.716;7.016;2024-02-21T14:58:23;11.00;98.80
71837;DHT22;59686;51.716;7.016;2024-02-21T15:00:49;11.00;98.70
71837;DHT22;59686;51.716;7.016;2024-02-21T15:03:16;11.00;98.70
71837;DHT22;59686;51.716;7.016;2024-02-21T15:05:45;11.10;98.70
71837;DHT22;59686;51.716;7.016;2024-02-21T15:08:11;11.00;98.70
71837;DHT22;59686;51.716;7.016;2024-02-21T15:10:38;11.00;99.00
71837;DHT22;59686;51.716;7.016;2024-02-21T15:13:04;11.00;98.80
71837;DHT22;59686;51.716;7.016;2024-02-21T15:15:29;11.00;98.70
71837;DHT22;59686;51.716;7.016;2024-02-21T15:17:56;11.00;98.60
71837;DHT22;59686;51.716;7.016;2024-02-21T15:20:22;11.00;98.60
71837;DHT22;59686;51.716;7.016;2024-02-21T15:22:48;11.00;98.80
71837;DHT22;59686;51.716;7.016;2024-02-21T15:25:14;11.00;98.80
71837;DHT22;59686;51.716;7.016;2024-02-21T15:27:44;11.00;98.50
71837;DHT22;59686;51.716;7.016;2024-02-21T15:30:13;11.10;98.60
71837;DHT22;59686;51.716;7.016;2024-02-21T15:32:42;11.00;98.50